sensor_id;sensor_type;location;lat;lon;timestamp;P1;durP1;ratioP1;P2;durP2;ratioP2
22357;SDS011;11346;50.150;8.150;2023-03-31T00:01:58;7.80;;;1.90;;
22357;SDS011;11346;50.150;8.150;2023-03-31T00:04:27;7.17;;;1.93;;
22357;SDS011;11346;50.150;8.150;2023-03-31T00:06:56;7.97;;;1.97;;
22357;SDS011;11346;50.150;8.150;2023-03-31T00:09:23;9.07;;;2.27;;
22357;SDS011;11346;50.150;8.150;2023-03-31T00:11:50;5.13;;;1.93;;
22357;SDS011;11346;50.150;8.150;2023-03-31T00:14:18;5.47;;;1.93;;
22357;SDS011;11346;50.150;8.150;2023-03-31T00:16:45;9.40;;;2.17;;
22357;SDS011;11346;50.150;8.150;2023-03-31T00:19:13;6.47;;;2.10;;
22357;SDS011;11346;50.150;8.150;2023-03-31T00:21:45;8.13;;;2.40;;
22357;SDS011;11346;50.150;8.150;2023-03-31T00:24:13;12.20;;;2.20;;
22357;SDS011;11346;50.150;8.150;2023-03-31T00:26:40;7.93;;;1.80;;
22357;SDS011;11346;50.150;8.150;2023-03-31T00:29:08;5.53;;;2.40;;
22357;SDS011;11346;50.150;8.150;2023-03-31T00:31:36;6.63;;;2.10;;
22357;SDS011;11346;50.150;8.150;2023-03-31T00:34:03;11.97;;;2.10;;
22357;SDS011;11346;50.150;8.150;2023-03-31T00:36:30;4.67;;;1.87;;
22357;SDS011;11346;50.150;8.150;2023-03-31T00:39:02;5.87;;;1.90;;
22357;SDS011;11346;50.150;8.150;2023-03-31T00:41:32;7.27;;;2.47;;
22357;SDS011;11346;50.150;8.150;2023-03-31T00:44:00;7.70;;;1.93;;
22357;SDS011;11346;50.150;8.150;2023-03-31T00:46:29;7.70;;;2.30;;
22357;SDS011;11346;50.150;8.150;2023-03-31T00:48:57;7.77;;;2.27;;
22357;SDS011;11346;50.150;8.150;2023-03-31T00:51:25;8.40;;;2.20;;
22357;SDS011;11346;50.150;8.150;2023-03-31T00:53:53;7.00;;;2.63;;
22357;SDS011;11346;50.150;8.150;2023-03-31T00:56:25;9.53;;;2.33;;
22357;SDS011;11346;50.150;8.150;2023-03-31T00:58:53;7.53;;;2.17;;
22357;SDS011;11346;50.150;8.150;2023-03-31T01:01:23;7.53;;;2.50;;
22357;SDS011;11346;50.150;8.150;2023-03-31T01:03:50;16.23;;;2.43;;
22357;SDS011;11346;50.150;8.150;2023-03-31T01:06:18;10.97;;;2.43;;
22357;SDS011;11346;50.150;8.150;2023-03-31T01:08:45;7.93;;;2.20;;
22357;SDS011;11346;50.150;8.150;2023-03-31T01:11:14;9.53;;;2.43;;
22357;SDS011;11346;50.150;8.150;2023-03-31T01:13:43;11.37;;;2.17;;
22357;SDS011;11346;50.150;8.150;2023-03-31T01:16:14;8.77;;;2.27;;
22357;SDS011;11346;50.150;8.150;2023-03-31T01:18:41;6.63;;;2.10;;
22357;SDS011;11346;50.150;8.150;2023-03-31T01:21:34;11.47;;;2.20;;
22357;SDS011;11346;50.150;8.150;2023-03-31T01:24:13;9.37;;;2.33;;
22357;SDS011;11346;50.150;8.150;2023-03-31T01:26:46;11.77;;;2.43;;
22357;SDS011;11346;50.150;8.150;2023-03-31T01:29:22;6.70;;;2.30;;
22357;SDS011;11346;50.150;8.150;2023-03-31T01:34:46;9.63;;;2.40;;
22357;SDS011;11346;50.150;8.150;2023-03-31T01:37:36;10.53;;;2.67;;
22357;SDS011;11346;50.150;8.150;2023-03-31T01:40:12;6.07;;;1.90;;
22357;SDS011;11346;50.150;8.150;2023-03-31T01:42:41;12.43;;;2.50;;
22357;SDS011;11346;50.150;8.150;2023-03-31T01:45:14;10.17;;;2.53;;
22357;SDS011;11346;50.150;8.150;2023-03-31T01:47:45;14.47;;;2.47;;
22357;SDS011;11346;50.150;8.150;2023-03-31T01:50:17;10.13;;;2.00;;
22357;SDS011;11346;50.150;8.150;2023-03-31T01:52:48;12.90;;;2.17;;
22357;SDS011;11346;50.150;8.150;2023-03-31T01:55:21;11.20;;;2.20;;
22357;SDS011;11346;50.150;8.150;2023-03-31T01:57:51;10.50;;;2.40;;
22357;SDS011;11346;50.150;8.150;2023-03-31T02:00:19;11.13;;;2.03;;
22357;SDS011;11346;50.150;8.150;2023-03-31T02:02:48;14.63;;;2.73;;
22357;SDS011;11346;50.150;8.150;2023-03-31T02:05:18;7.53;;;2.00;;
22357;SDS011;11346;50.150;8.150;2023-03-31T02:07:47;9.60;;;2.10;;
22357;SDS011;11346;50.150;8.150;2023-03-31T02:10:15;11.33;;;1.93;;
22357;SDS011;11346;50.150;8.150;2023-03-31T02:12:44;7.80;;;2.10;;
22357;SDS011;11346;50.150;8.150;2023-03-31T02:15:12;7.00;;;2.00;;
22357;SDS011;11346;50.150;8.150;2023-03-31T02:17:42;8.13;;;2.30;;
22357;SDS011;11346;50.150;8.150;2023-03-31T02:20:10;7.43;;;2.20;;
22357;SDS011;11346;50.150;8.150;2023-03-31T02:22:42;6.73;;;2.17;;
22357;SDS011;11346;50.150;8.150;2023-03-31T02:25:12;8.87;;;2.10;;
22357;SDS011;11346;50.150;8.150;2023-03-31T02:27:41;5.43;;;1.77;;
22357;SDS011;11346;50.150;8.150;2023-03-31T02:30:10;10.03;;;2.30;;
22357;SDS011;11346;50.150;8.150;2023-03-31T02:32:38;6.40;;;2.13;;
22357;SDS011;11346;50.150;8.150;2023-03-31T02:35:07;8.10;;;2.10;;
22357;SDS011;11346;50.150;8.150;2023-03-31T02:37:35;6.67;;;2.67;;
22357;SDS011;11346;50.150;8.150;2023-03-31T02:40:04;10.77;;;2.27;;
22357;SDS011;11346;50.150;8.150;2023-03-31T02:42:34;8.77;;;2.20;;
22357;SDS011;11346;50.150;8.150;2023-03-31T02:45:02;9.73;;;2.60;;
22357;SDS011;11346;50.150;8.150;2023-03-31T02:47:30;5.87;;;2.20;;
22357;SDS011;11346;50.150;8.150;2023-03-31T02:49:58;5.70;;;2.43;;
22357;SDS011;11346;50.150;8.150;2023-03-31T02:52:29;9.80;;;2.33;;
22357;SDS011;11346;50.150;8.150;2023-03-31T02:55:06;10.13;;;2.80;;
22357;SDS011;11346;50.150;8.150;2023-03-31T02:57:40;6.10;;;2.30;;
22357;SDS011;11346;50.150;8.150;2023-03-31T03:00:14;4.83;;;1.93;;
22357;SDS011;11346;50.150;8.150;2023-03-31T03:02:48;7.23;;;2.13;;
22357;SDS011;11346;50.150;8.150;2023-03-31T03:05:19;6.07;;;2.10;;
22357;SDS011;11346;50.150;8.150;2023-03-31T03:07:49;10.13;;;2.30;;
22357;SDS011;11346;50.150;8.150;2023-03-31T03:10:19;5.27;;;1.80;;
22357;SDS011;11346;50.150;8.150;2023-03-31T03:12:50;7.57;;;2.20;;
22357;SDS011;11346;50.150;8.150;2023-03-31T03:15:23;5.90;;;2.10;;
22357;SDS011;11346;50.150;8.150;2023-03-31T03:17:52;5.80;;;2.00;;
22357;SDS011;11346;50.150;8.150;2023-03-31T03:20:20;10.23;;;2.57;;
22357;SDS011;11346;50.150;8.150;2023-03-31T03:22:47;11.00;;;2.50;;
22357;SDS011;11346;50.150;8.150;2023-03-31T03:25:15;6.80;;;2.03;;
22357;SDS011;11346;50.150;8.150;2023-03-31T03:27:42;9.93;;;2.23;;
22357;SDS011;11346;50.150;8.150;2023-03-31T03:30:10;8.63;;;2.40;;
22357;SDS011;11346;50.150;8.150;2023-03-31T03:32:38;6.47;;;2.43;;
22357;SDS011;11346;50.150;8.150;2023-03-31T03:35:07;8.43;;;2.73;;
22357;SDS011;11346;50.150;8.150;2023-03-31T03:37:34;10.47;;;2.37;;
22357;SDS011;11346;50.150;8.150;2023-03-31T03:40:01;8.17;;;2.27;;
22357;SDS011;11346;50.150;8.150;2023-03-31T03:42:30;5.03;;;2.30;;
22357;SDS011;11346;50.150;8.150;2023-03-31T03:44:57;4.63;;;2.40;;
22357;SDS011;11346;50.150;8.150;2023-03-31T03:47:25;12.97;;;2.60;;
22357;SDS011;11346;50.150;8.150;2023-03-31T03:49:52;4.83;;;2.37;;
22357;SDS011;11346;50.150;8.150;2023-03-31T03:52:20;9.00;;;2.30;;
22357;SDS011;11346;50.150;8.150;2023-03-31T03:54:47;7.50;;;2.30;;
22357;SDS011;11346;50.150;8.150;2023-03-31T03:57:14;7.40;;;2.30;;
22357;SDS011;11346;50.150;8.150;2023-03-31T03:59:41;8.17;;;2.23;;
22357;SDS011;11346;50.150;8.150;2023-03-31T04:02:08;6.70;;;2.00;;
22357;SDS011;11346;50.150;8.150;2023-03-31T04:04:35;7.17;;;2.83;;
22357;SDS011;11346;50.150;8.150;2023-03-31T04:07:02;7.47;;;2.33;;
22357;SDS011;11346;50.150;8.150;2023-03-31T04:09:31;4.03;;;1.83;;
22357;SDS011;11346;50.150;8.150;2023-03-31T04:11:58;7.77;;;3.40;;
22357;SDS011;11346;50.150;8.150;2023-03-31T04:14:25;8.77;;;1.63;;
22357;SDS011;11346;50.150;8.150;2023-03-31T04:16:52;9.13;;;2.13;;
22357;SDS011;11346;50.150;8.150;2023-03-31T04:19:20;7.63;;;2.20;;
22357;SDS011;11346;50.150;8.150;2023-03-31T04:21:49;5.73;;;1.67;;
22357;SDS011;11346;50.150;8.150;2023-03-31T04:24:22;5.37;;;2.27;;
22357;SDS011;11346;50.150;8.150;2023-03-31T04:26:58;5.30;;;2.27;;
22357;SDS011;11346;50.150;8.150;2023-03-31T04:29:26;6.10;;;2.37;;
22357;SDS011;11346;50.150;8.150;2023-03-31T04:31:57;9.83;;;2.37;;
22357;SDS011;11346;50.150;8.150;2023-03-31T04:34:24;5.03;;;2.43;;
22357;SDS011;11346;50.150;8.150;2023-03-31T04:36:58;8.70;;;2.40;;
22357;SDS011;11346;50.150;8.150;2023-03-31T04:39:26;8.13;;;2.73;;
22357;SDS011;11346;50.150;8.150;2023-03-31T04:41:54;8.80;;;3.40;;
22357;SDS011;11346;50.150;8.150;2023-03-31T04:44:24;11.07;;;2.73;;
22357;SDS011;11346;50.150;8.150;2023-03-31T04:46:52;7.80;;;3.10;;
22357;SDS011;11346;50.150;8.150;2023-03-31T04:49:19;6.90;;;3.20;;
22357;SDS011;11346;50.150;8.150;2023-03-31T04:51:46;7.13;;;2.07;;
22357;SDS011;11346;50.150;8.150;2023-03-31T04:54:13;6.53;;;2.27;;
22357;SDS011;11346;50.150;8.150;2023-03-31T04:56:40;7.57;;;2.07;;
22357;SDS011;11346;50.150;8.150;2023-03-31T04:59:07;8.53;;;1.90;;
22357;SDS011;11346;50.150;8.150;2023-03-31T05:01:36;9.17;;;2.40;;
22357;SDS011;11346;50.150;8.150;2023-03-31T05:04:03;9.40;;;2.50;;
22357;SDS011;11346;50.150;8.150;2023-03-31T05:06:30;8.40;;;2.40;;
22357;SDS011;11346;50.150;8.150;2023-03-31T05:08:57;7.73;;;2.33;;
22357;SDS011;11346;50.150;8.150;2023-03-31T05:11:24;6.73;;;2.37;;
22357;SDS011;11346;50.150;8.150;2023-03-31T05:13:53;5.27;;;2.40;;
22357;SDS011;11346;50.150;8.150;2023-03-31T05:16:20;7.87;;;2.70;;
22357;SDS011;11346;50.150;8.150;2023-03-31T05:18:48;2.50;;;1.90;;
22357;SDS011;11346;50.150;8.150;2023-03-31T05:21:16;12.70;;;2.90;;
22357;SDS011;11346;50.150;8.150;2023-03-31T05:23:43;6.77;;;3.00;;
22357;SDS011;11346;50.150;8.150;2023-03-31T05:26:11;3.43;;;2.10;;
22357;SDS011;11346;50.150;8.150;2023-03-31T05:28:38;6.73;;;3.33;;
22357;SDS011;11346;50.150;8.150;2023-03-31T05:31:06;5.33;;;2.57;;
22357;SDS011;11346;50.150;8.150;2023-03-31T05:33:33;6.57;;;3.07;;
22357;SDS011;11346;50.150;8.150;2023-03-31T05:36:06;9.33;;;2.90;;
22357;SDS011;11346;50.150;8.150;2023-03-31T05:38:33;6.80;;;2.27;;
22357;SDS011;11346;50.150;8.150;2023-03-31T05:41:00;9.87;;;3.13;;
22357;SDS011;11346;50.150;8.150;2023-03-31T05:43:27;10.57;;;2.67;;
22357;SDS011;11346;50.150;8.150;2023-03-31T05:45:54;5.87;;;3.03;;
22357;SDS011;11346;50.150;8.150;2023-03-31T05:48:21;9.27;;;3.07;;
22357;SDS011;11346;50.150;8.150;2023-03-31T05:50:48;2.27;;;1.67;;
22357;SDS011;11346;50.150;8.150;2023-03-31T05:53:16;3.40;;;2.43;;
22357;SDS011;11346;50.150;8.150;2023-03-31T05:55:43;4.63;;;2.20;;
22357;SDS011;11346;50.150;8.150;2023-03-31T05:58:10;5.77;;;2.70;;
22357;SDS011;11346;50.150;8.150;2023-03-31T06:00:37;4.50;;;2.50;;
22357;SDS011;11346;50.150;8.150;2023-03-31T06:03:04;3.00;;;2.60;;
22357;SDS011;11346;50.150;8.150;2023-03-31T06:05:33;6.50;;;2.53;;
22357;SDS011;11346;50.150;8.150;2023-03-31T06:08:00;6.50;;;2.87;;
22357;SDS011;11346;50.150;8.150;2023-03-31T06:10:29;6.53;;;3.00;;
22357;SDS011;11346;50.150;8.150;2023-03-31T06:12:56;5.67;;;3.43;;
22357;SDS011;11346;50.150;8.150;2023-03-31T06:15:23;4.17;;;2.70;;
22357;SDS011;11346;50.150;8.150;2023-03-31T06:17:50;5.57;;;3.30;;
22357;SDS011;11346;50.150;8.150;2023-03-31T06:20:17;7.10;;;3.47;;
22357;SDS011;11346;50.150;8.150;2023-03-31T06:22:44;6.07;;;3.43;;
22357;SDS011;11346;50.150;8.150;2023-03-31T06:25:11;11.57;;;3.33;;
22357;SDS011;11346;50.150;8.150;2023-03-31T06:27:39;10.30;;;3.40;;
22357;SDS011;11346;50.150;8.150;2023-03-31T06:30:06;6.63;;;3.17;;
22357;SDS011;11346;50.150;8.150;2023-03-31T06:32:34;3.73;;;2.87;;
22357;SDS011;11346;50.150;8.150;2023-03-31T06:35:01;7.57;;;2.97;;
22357;SDS011;11346;50.150;8.150;2023-03-31T06:37:28;9.50;;;3.77;;
22357;SDS011;11346;50.150;8.150;2023-03-31T06:39:55;7.53;;;3.83;;
22357;SDS011;11346;50.150;8.150;2023-03-31T06:42:22;8.67;;;3.40;;
22357;SDS011;11346;50.150;8.150;2023-03-31T06:44:51;11.67;;;3.57;;
22357;SDS011;11346;50.150;8.150;2023-03-31T06:47:19;13.20;;;3.90;;
22357;SDS011;11346;50.150;8.150;2023-03-31T06:49:46;7.20;;;4.27;;
22357;SDS011;11346;50.150;8.150;2023-03-31T06:52:13;6.20;;;4.20;;
22357;SDS011;11346;50.150;8.150;2023-03-31T06:54:40;6.53;;;3.97;;
22357;SDS011;11346;50.150;8.150;2023-03-31T06:57:07;9.67;;;2.70;;
22357;SDS011;11346;50.150;8.150;2023-03-31T06:59:34;5.23;;;2.57;;
22357;SDS011;11346;50.150;8.150;2023-03-31T07:02:03;3.20;;;2.10;;
22357;SDS011;11346;50.150;8.150;2023-03-31T07:04:30;2.83;;;1.70;;
22357;SDS011;11346;50.150;8.150;2023-03-31T07:06:57;3.53;;;1.90;;
22357;SDS011;11346;50.150;8.150;2023-03-31T07:09:24;2.07;;;1.70;;
22357;SDS011;11346;50.150;8.150;2023-03-31T07:11:51;2.27;;;2.07;;
22357;SDS011;11346;50.150;8.150;2023-03-31T07:14:18;3.47;;;1.70;;
22357;SDS011;11346;50.150;8.150;2023-03-31T07:16:46;2.10;;;1.90;;
22357;SDS011;11346;50.150;8.150;2023-03-31T07:19:15;5.20;;;2.13;;
22357;SDS011;11346;50.150;8.150;2023-03-31T07:21:43;3.63;;;1.90;;
22357;SDS011;11346;50.150;8.150;2023-03-31T07:24:10;2.37;;;1.90;;
22357;SDS011;11346;50.150;8.150;2023-03-31T07:26:37;3.63;;;1.80;;
22357;SDS011;11346;50.150;8.150;2023-03-31T07:29:04;4.83;;;2.03;;
22357;SDS011;11346;50.150;8.150;2023-03-31T07:31:31;4.77;;;2.30;;
22357;SDS011;11346;50.150;8.150;2023-03-31T07:33:59;4.97;;;2.23;;
22357;SDS011;11346;50.150;8.150;2023-03-31T07:36:28;4.23;;;2.60;;
22357;SDS011;11346;50.150;8.150;2023-03-31T07:38:55;2.70;;;2.50;;
22357;SDS011;11346;50.150;8.150;2023-03-31T07:41:22;4.53;;;2.47;;
22357;SDS011;11346;50.150;8.150;2023-03-31T07:43:50;2.83;;;2.13;;
22357;SDS011;11346;50.150;8.150;2023-03-31T07:46:18;2.93;;;1.90;;
22357;SDS011;11346;50.150;8.150;2023-03-31T07:48:45;3.07;;;2.10;;
22357;SDS011;11346;50.150;8.150;2023-03-31T07:51:13;4.73;;;1.93;;
22357;SDS011;11346;50.150;8.150;2023-03-31T07:53:41;2.73;;;2.37;;
22357;SDS011;11346;50.150;8.150;2023-03-31T07:56:08;1.60;;;1.50;;
22357;SDS011;11346;50.150;8.150;2023-03-31T07:58:35;1.30;;;1.20;;
22357;SDS011;11346;50.150;8.150;2023-03-31T08:01:02;2.63;;;1.90;;
22357;SDS011;11346;50.150;8.150;2023-03-31T08:03:29;2.97;;;1.53;;
22357;SDS011;11346;50.150;8.150;2023-03-31T08:05:58;2.90;;;1.47;;
22357;SDS011;11346;50.150;8.150;2023-03-31T08:08:25;1.00;;;1.00;;
22357;SDS011;11346;50.150;8.150;2023-03-31T08:10:54;1.27;;;1.17;;
22357;SDS011;11346;50.150;8.150;2023-03-31T08:13:21;0.87;;;0.70;;
22357;SDS011;11346;50.150;8.150;2023-03-31T08:15:48;0.80;;;0.80;;
22357;SDS011;11346;50.150;8.150;2023-03-31T08:18:15;0.77;;;0.77;;
22357;SDS011;11346;50.150;8.150;2023-03-31T08:20:42;1.67;;;1.03;;
22357;SDS011;11346;50.150;8.150;2023-03-31T08:23:10;1.20;;;1.10;;
22357;SDS011;11346;50.150;8.150;2023-03-31T08:25:37;2.87;;;1.30;;
22357;SDS011;11346;50.150;8.150;2023-03-31T08:28:05;1.87;;;0.83;;
22357;SDS011;11346;50.150;8.150;2023-03-31T08:30:35;2.77;;;1.20;;
22357;SDS011;11346;50.150;8.150;2023-03-31T08:33:03;1.60;;;1.30;;
22357;SDS011;11346;50.150;8.150;2023-03-31T08:35:31;4.67;;;1.67;;
22357;SDS011;11346;50.150;8.150;2023-03-31T08:37:58;3.30;;;1.60;;
22357;SDS011;11346;50.150;8.150;2023-03-31T08:40:26;1.70;;;1.43;;
22357;SDS011;11346;50.150;8.150;2023-03-31T08:42:54;6.03;;;1.60;;
22357;SDS011;11346;50.150;8.150;2023-03-31T08:45:24;2.23;;;1.70;;
22357;SDS011;11346;50.150;8.150;2023-03-31T08:47:54;3.40;;;1.43;;
22357;SDS011;11346;50.150;8.150;2023-03-31T08:50:24;2.30;;;1.57;;
22357;SDS011;11346;50.150;8.150;2023-03-31T08:52:54;4.53;;;1.80;;
22357;SDS011;11346;50.150;8.150;2023-03-31T08:55:24;4.50;;;2.00;;
22357;SDS011;11346;50.150;8.150;2023-03-31T08:57:57;5.70;;;1.90;;
22357;SDS011;11346;50.150;8.150;2023-03-31T09:00:27;3.33;;;1.73;;
22357;SDS011;11346;50.150;8.150;2023-03-31T09:03:01;4.53;;;1.83;;
22357;SDS011;11346;50.150;8.150;2023-03-31T09:05:36;5.33;;;1.90;;
22357;SDS011;11346;50.150;8.150;2023-03-31T09:08:10;5.67;;;2.27;;
22357;SDS011;11346;50.150;8.150;2023-03-31T09:10:40;7.00;;;2.17;;
22357;SDS011;11346;50.150;8.150;2023-03-31T09:13:16;3.47;;;1.80;;
22357;SDS011;11346;50.150;8.150;2023-03-31T09:15:46;3.63;;;1.60;;
22357;SDS011;11346;50.150;8.150;2023-03-31T09:18:14;5.73;;;2.00;;
22357;SDS011;11346;50.150;8.150;2023-03-31T09:20:44;5.20;;;2.00;;
22357;SDS011;11346;50.150;8.150;2023-03-31T09:23:17;8.17;;;2.20;;
22357;SDS011;11346;50.150;8.150;2023-03-31T09:25:48;4.20;;;1.77;;
22357;SDS011;11346;50.150;8.150;2023-03-31T09:28:17;7.63;;;2.40;;
22357;SDS011;11346;50.150;8.150;2023-03-31T09:30:48;4.17;;;1.90;;
22357;SDS011;11346;50.150;8.150;2023-03-31T09:33:16;10.00;;;2.23;;
22357;SDS011;11346;50.150;8.150;2023-03-31T09:35:43;5.43;;;1.93;;
22357;SDS011;11346;50.150;8.150;2023-03-31T09:38:10;7.03;;;1.77;;
22357;SDS011;11346;50.150;8.150;2023-03-31T09:40:37;6.07;;;2.43;;
22357;SDS011;11346;50.150;8.150;2023-03-31T09:43:06;7.03;;;2.97;;
22357;SDS011;11346;50.150;8.150;2023-03-31T09:45:33;4.97;;;1.93;;
22357;SDS011;11346;50.150;8.150;2023-03-31T09:48:03;9.30;;;2.83;;
22357;SDS011;11346;50.150;8.150;2023-03-31T09:50:31;9.37;;;2.30;;
22357;SDS011;11346;50.150;8.150;2023-03-31T09:53:02;7.27;;;2.40;;
22357;SDS011;11346;50.150;8.150;2023-03-31T09:55:32;7.57;;;2.30;;
22357;SDS011;11346;50.150;8.150;2023-03-31T09:58:04;6.83;;;2.30;;
22357;SDS011;11346;50.150;8.150;2023-03-31T10:00:32;10.97;;;2.80;;
22357;SDS011;11346;50.150;8.150;2023-03-31T10:03:00;11.87;;;2.57;;
22357;SDS011;11346;50.150;8.150;2023-03-31T10:05:32;5.67;;;2.03;;
22357;SDS011;11346;50.150;8.150;2023-03-31T10:08:20;5.47;;;1.63;;
22357;SDS011;11346;50.150;8.150;2023-03-31T10:10:48;4.27;;;1.50;;
22357;SDS011;11346;50.150;8.150;2023-03-31T10:13:17;6.37;;;1.60;;
22357;SDS011;11346;50.150;8.150;2023-03-31T10:15:45;1.80;;;1.40;;
22357;SDS011;11346;50.150;8.150;2023-03-31T10:18:12;5.87;;;1.63;;
22357;SDS011;11346;50.150;8.150;2023-03-31T10:20:44;5.53;;;1.40;;
22357;SDS011;11346;50.150;8.150;2023-03-31T10:23:15;1.30;;;1.20;;
22357;SDS011;11346;50.150;8.150;2023-03-31T10:25:42;3.03;;;1.60;;
22357;SDS011;11346;50.150;8.150;2023-03-31T10:28:10;3.73;;;1.40;;
22357;SDS011;11346;50.150;8.150;2023-03-31T10:30:38;1.03;;;0.93;;
22357;SDS011;11346;50.150;8.150;2023-03-31T10:33:05;5.10;;;1.50;;
22357;SDS011;11346;50.150;8.150;2023-03-31T10:35:37;3.40;;;1.40;;
22357;SDS011;11346;50.150;8.150;2023-03-31T10:38:06;2.83;;;1.20;;
22357;SDS011;11346;50.150;8.150;2023-03-31T10:40:36;10.50;;;1.50;;
22357;SDS011;11346;50.150;8.150;2023-03-31T10:43:04;3.63;;;1.40;;
22357;SDS011;11346;50.150;8.150;2023-03-31T10:45:35;4.93;;;1.43;;
22357;SDS011;11346;50.150;8.150;2023-03-31T10:48:03;9.73;;;3.03;;
22357;SDS011;11346;50.150;8.150;2023-03-31T10:50:31;3.37;;;1.90;;
22357;SDS011;11346;50.150;8.150;2023-03-31T10:53:00;2.80;;;1.20;;
22357;SDS011;11346;50.150;8.150;2023-03-31T10:55:31;9.90;;;2.13;;
22357;SDS011;11346;50.150;8.150;2023-03-31T10:58:00;8.27;;;2.13;;
22357;SDS011;11346;50.150;8.150;2023-03-31T11:00:32;13.37;;;2.40;;
22357;SDS011;11346;50.150;8.150;2023-03-31T11:03:13;11.00;;;2.47;;
22357;SDS011;11346;50.150;8.150;2023-03-31T11:05:45;7.37;;;2.00;;
22357;SDS011;11346;50.150;8.150;2023-03-31T11:08:17;7.70;;;1.70;;
22357;SDS011;11346;50.150;8.150;2023-03-31T11:10:52;9.53;;;1.90;;
22357;SDS011;11346;50.150;8.150;2023-03-31T11:13:24;11.40;;;2.70;;
22357;SDS011;11346;50.150;8.150;2023-03-31T11:15:53;8.33;;;2.30;;
22357;SDS011;11346;50.150;8.150;2023-03-31T11:18:32;10.47;;;2.17;;
22357;SDS011;11346;50.150;8.150;2023-03-31T11:21:02;7.93;;;2.17;;
22357;SDS011;11346;50.150;8.150;2023-03-31T11:23:36;12.07;;;2.20;;
22357;SDS011;11346;50.150;8.150;2023-03-31T11:26:08;11.10;;;2.40;;
22357;SDS011;11346;50.150;8.150;2023-03-31T11:28:42;3.93;;;1.63;;
22357;SDS011;11346;50.150;8.150;2023-03-31T11:31:21;9.60;;;1.70;;
22357;SDS011;11346;50.150;8.150;2023-03-31T11:33:55;9.17;;;1.83;;
22357;SDS011;11346;50.150;8.150;2023-03-31T11:36:26;8.93;;;2.30;;
22357;SDS011;11346;50.150;8.150;2023-03-31T11:39:02;10.00;;;2.33;;
22357;SDS011;11346;50.150;8.150;2023-03-31T11:41:41;3.90;;;1.53;;
22357;SDS011;11346;50.150;8.150;2023-03-31T11:44:10;4.47;;;1.87;;
22357;SDS011;11346;50.150;8.150;2023-03-31T11:46:38;6.23;;;1.60;;
22357;SDS011;11346;50.150;8.150;2023-03-31T11:49:09;5.23;;;1.50;;
22357;SDS011;11346;50.150;8.150;2023-03-31T11:51:41;5.60;;;2.00;;
22357;SDS011;11346;50.150;8.150;2023-03-31T11:54:10;7.57;;;1.70;;
22357;SDS011;11346;50.150;8.150;2023-03-31T11:56:43;9.30;;;1.47;;
22357;SDS011;11346;50.150;8.150;2023-03-31T11:59:10;3.07;;;1.40;;
22357;SDS011;11346;50.150;8.150;2023-03-31T12:01:41;7.60;;;2.20;;
22357;SDS011;11346;50.150;8.150;2023-03-31T12:04:11;12.73;;;1.67;;
22357;SDS011;11346;50.150;8.150;2023-03-31T12:06:40;9.73;;;2.40;;
22357;SDS011;11346;50.150;8.150;2023-03-31T12:09:12;10.10;;;2.20;;
22357;SDS011;11346;50.150;8.150;2023-03-31T12:11:43;7.87;;;2.07;;
22357;SDS011;11346;50.150;8.150;2023-03-31T12:14:16;6.83;;;1.90;;
22357;SDS011;11346;50.150;8.150;2023-03-31T12:16:47;4.50;;;1.43;;
22357;SDS011;11346;50.150;8.150;2023-03-31T12:19:16;7.57;;;1.77;;
22357;SDS011;11346;50.150;8.150;2023-03-31T12:21:47;8.60;;;1.90;;
22357;SDS011;11346;50.150;8.150;2023-03-31T12:24:15;9.70;;;2.03;;
22357;SDS011;11346;50.150;8.150;2023-03-31T12:26:45;6.67;;;1.90;;
22357;SDS011;11346;50.150;8.150;2023-03-31T12:29:16;8.53;;;2.20;;
22357;SDS011;11346;50.150;8.150;2023-03-31T12:31:46;7.00;;;2.00;;
22357;SDS011;11346;50.150;8.150;2023-03-31T12:34:15;7.53;;;2.43;;
22357;SDS011;11346;50.150;8.150;2023-03-31T12:36:46;11.33;;;2.03;;
22357;SDS011;11346;50.150;8.150;2023-03-31T12:39:19;7.17;;;2.10;;
22357;SDS011;11346;50.150;8.150;2023-03-31T12:41:57;9.33;;;2.40;;
22357;SDS011;11346;50.150;8.150;2023-03-31T12:44:31;4.50;;;1.60;;
22357;SDS011;11346;50.150;8.150;2023-03-31T12:49:46;7.93;;;1.93;;
22357;SDS011;11346;50.150;8.150;2023-03-31T12:52:20;7.17;;;1.80;;
22357;SDS011;11346;50.150;8.150;2023-03-31T12:54:53;10.40;;;2.20;;
22357;SDS011;11346;50.150;8.150;2023-03-31T12:57:24;5.13;;;1.33;;
22357;SDS011;11346;50.150;8.150;2023-03-31T13:02:37;6.73;;;1.63;;
22357;SDS011;11346;50.150;8.150;2023-03-31T13:07:46;4.17;;;1.70;;
22357;SDS011;11346;50.150;8.150;2023-03-31T13:10:29;6.33;;;1.73;;
22357;SDS011;11346;50.150;8.150;2023-03-31T13:13:01;5.70;;;1.67;;
22357;SDS011;11346;50.150;8.150;2023-03-31T13:15:30;4.00;;;1.53;;
22357;SDS011;11346;50.150;8.150;2023-03-31T13:17:57;6.03;;;1.80;;
22357;SDS011;11346;50.150;8.150;2023-03-31T13:20:34;4.67;;;1.40;;
22357;SDS011;11346;50.150;8.150;2023-03-31T13:23:04;7.43;;;2.03;;
22357;SDS011;11346;50.150;8.150;2023-03-31T13:25:33;4.67;;;1.63;;
22357;SDS011;11346;50.150;8.150;2023-03-31T13:28:14;11.07;;;1.87;;
22357;SDS011;11346;50.150;8.150;2023-03-31T13:30:45;6.33;;;1.50;;
22357;SDS011;11346;50.150;8.150;2023-03-31T13:33:13;5.50;;;1.57;;
22357;SDS011;11346;50.150;8.150;2023-03-31T13:35:40;11.00;;;2.20;;
22357;SDS011;11346;50.150;8.150;2023-03-31T13:38:12;6.70;;;2.03;;
22357;SDS011;11346;50.150;8.150;2023-03-31T13:40:56;7.50;;;1.50;;
22357;SDS011;11346;50.150;8.150;2023-03-31T13:48:52;6.20;;;1.70;;
22357;SDS011;11346;50.150;8.150;2023-03-31T13:51:22;8.33;;;1.50;;
22357;SDS011;11346;50.150;8.150;2023-03-31T13:53:58;5.27;;;1.43;;
22357;SDS011;11346;50.150;8.150;2023-03-31T13:56:34;4.40;;;1.60;;
22357;SDS011;11346;50.150;8.150;2023-03-31T14:01:56;6.60;;;2.00;;
22357;SDS011;11346;50.150;8.150;2023-03-31T14:04:37;2.17;;;1.10;;
22357;SDS011;11346;50.150;8.150;2023-03-31T14:07:06;5.57;;;1.33;;
22357;SDS011;11346;50.150;8.150;2023-03-31T14:09:34;4.07;;;1.50;;
22357;SDS011;11346;50.150;8.150;2023-03-31T14:12:17;3.47;;;1.50;;
22357;SDS011;11346;50.150;8.150;2023-03-31T14:14:45;6.07;;;1.43;;
22357;SDS011;11346;50.150;8.150;2023-03-31T14:17:13;3.43;;;1.50;;
22357;SDS011;11346;50.150;8.150;2023-03-31T14:19:49;5.20;;;1.50;;
22357;SDS011;11346;50.150;8.150;2023-03-31T14:22:22;2.10;;;1.10;;
22357;SDS011;11346;50.150;8.150;2023-03-31T14:24:54;4.87;;;1.20;;
22357;SDS011;11346;50.150;8.150;2023-03-31T14:27:29;3.80;;;1.57;;
22357;SDS011;11346;50.150;8.150;2023-03-31T14:30:04;5.60;;;1.63;;
22357;SDS011;11346;50.150;8.150;2023-03-31T14:32:35;8.40;;;2.03;;
22357;SDS011;11346;50.150;8.150;2023-03-31T14:35:11;6.13;;;1.57;;
22357;SDS011;11346;50.150;8.150;2023-03-31T14:37:41;6.63;;;1.50;;
22357;SDS011;11346;50.150;8.150;2023-03-31T14:40:09;9.67;;;1.70;;
22357;SDS011;11346;50.150;8.150;2023-03-31T14:42:39;5.30;;;1.73;;
22357;SDS011;11346;50.150;8.150;2023-03-31T14:45:14;5.03;;;1.27;;
22357;SDS011;11346;50.150;8.150;2023-03-31T14:47:41;4.50;;;1.40;;
22357;SDS011;11346;50.150;8.150;2023-03-31T14:50:12;4.03;;;1.70;;
22357;SDS011;11346;50.150;8.150;2023-03-31T14:52:45;4.23;;;1.13;;
22357;SDS011;11346;50.150;8.150;2023-03-31T14:55:13;5.40;;;1.47;;
22357;SDS011;11346;50.150;8.150;2023-03-31T14:57:40;6.90;;;1.53;;
22357;SDS011;11346;50.150;8.150;2023-03-31T15:00:10;4.90;;;1.70;;
22357;SDS011;11346;50.150;8.150;2023-03-31T15:02:40;5.27;;;1.50;;
22357;SDS011;11346;50.150;8.150;2023-03-31T15:05:08;2.13;;;1.23;;
22357;SDS011;11346;50.150;8.150;2023-03-31T15:07:38;6.83;;;1.50;;
22357;SDS011;11346;50.150;8.150;2023-03-31T15:10:12;5.70;;;1.40;;
22357;SDS011;11346;50.150;8.150;2023-03-31T15:12:42;2.33;;;1.10;;
22357;SDS011;11346;50.150;8.150;2023-03-31T15:15:09;5.00;;;1.47;;
22357;SDS011;11346;50.150;8.150;2023-03-31T15:17:38;3.47;;;1.40;;
22357;SDS011;11346;50.150;8.150;2023-03-31T15:20:19;4.97;;;1.20;;